Time;durP1;ratioP1;P1;durP2;ratioP2;P2;SDS_P1;SDS_P2;PMS_P1;PMS_P2;Temp;Humidity;BMP_temperature;BMP_pressure;BME280_temperature;BME280_humidity;BME280_pressure;Samples;Min_cycle;Max_cycle;Signal;HPM_P1;HPM_P2
2023/01/31 00:00:25;;;;;;;21.00;15.73;;;;;;;-0.13;81.58;92263.50;4941153;29;20217;-80
2023/01/31 00:02:51;;;;;;;26.23;18.53;;;;;;;-0.40;81.32;92250.31;4943031;29;20210;-80
2023/01/31 00:05:18;;;;;;;28.73;18.80;;;;;;;-0.23;81.83;92274.31;4917946;29;20182;-80
2023/01/31 00:07:44;;;;;;;28.20;18.63;;;;;;;-0.07;80.84;92272.88;4917281;29;20225;-80
2023/01/31 00:10:10;;;;;;;33.47;18.60;;;;;;;-0.43;81.27;92278.16;4935011;29;20198;-78
2023/01/31 00:12:35;;;;;;;25.57;18.30;;;;;;;-0.13;80.72;92292.50;4940694;29;20924;-80
2023/01/31 00:15:00;;;;;;;21.80;17.00;;;;;;;-0.37;81.46;92249.09;4941635;29;20225;-80
2023/01/31 00:17:26;;;;;;;24.33;17.10;;;;;;;-0.06;79.42;92282.13;4943246;29;20186;-80
2023/01/31 00:19:51;;;;;;;25.80;17.83;;;;;;;-0.17;80.19;92270.06;4939541;29;20252;-79
2023/01/31 00:22:17;;;;;;;21.07;16.97;;;;;;;-0.16;81.51;92271.63;4940697;29;20214;-80
2023/01/31 00:24:42;;;;;;;23.20;16.83;;;;;;;-0.25;82.71;92271.16;4942000;29;20229;-80
2023/01/31 00:27:07;;;;;;;22.47;16.93;;;;;;;-0.28;84.04;92268.28;4940675;29;20261;-80
2023/01/31 00:29:33;;;;;;;23.93;17.73;;;;;;;-0.32;84.81;92275.63;4940610;29;20221;-80
2023/01/31 00:31:58;;;;;;;28.37;19.33;;;;;;;-0.13;81.19;92281.44;4941762;29;20178;-79
2023/01/31 00:34:24;;;;;;;24.23;18.97;;;;;;;-0.42;81.45;92282.31;4939295;29;20257;-79
2023/01/31 00:36:49;;;;;;;30.40;19.03;;;;;;;-0.66;82.16;92255.06;4942990;29;20190;-81
2023/01/31 00:39:14;;;;;;;28.43;20.10;;;;;;;-0.34;82.46;92285.31;4919111;29;20230;-80
2023/01/31 00:41:40;;;;;;;27.17;19.33;;;;;;;-0.70;82.40;92243.72;4941495;29;20194;-80
2023/01/31 00:44:06;;;;;;;29.00;18.13;;;;;;;-0.43;82.59;92280.75;4938373;29;20237;-80
2023/01/31 00:46:31;;;;;;;26.03;19.27;;;;;;;-0.47;82.83;92284.75;4943000;29;20194;-80
2023/01/31 00:48:58;;;;;;;29.97;19.73;;;;;;;-0.92;83.77;92251.09;4941369;29;20254;-80
2023/01/31 00:51:25;;;;;;;30.53;19.10;;;;;;;-0.79;84.39;92273.19;4942842;29;20213;-81
2023/01/31 00:53:50;;;;;;;30.67;18.93;;;;;;;-0.71;85.11;92267.75;4940755;29;20245;-79
2023/01/31 00:56:18;;;;;;;27.53;18.03;;;;;;;-0.58;84.51;92267.56;4942029;29;20186;-79
2023/01/31 00:58:44;;;;;;;31.90;18.00;;;;;;;-0.60;84.31;92267.78;4941399;29;20249;-80
2023/01/31 01:01:18;;;;;;;30.57;18.50;;;;;;;-0.37;82.65;92267.81;4939537;29;20253;-81
2023/01/31 01:03:44;;;;;;;26.07;18.13;;;;;;;-0.59;83.99;92266.00;4937291;29;20238;-80
2023/01/31 01:06:10;;;;;;;25.17;17.13;;;;;;;-0.95;86.00;92230.28;4940449;29;20186;-80
2023/01/31 01:08:38;;;;;;;29.90;19.07;;;;;;;-1.12;86.61;92267.75;4917207;29;20218;-80
2023/01/31 01:11:09;;;;;;;28.70;18.60;;;;;;;-1.00;85.64;92232.69;4938017;29;20214;-80
2023/01/31 01:13:35;;;;;;;28.37;19.20;;;;;;;-0.96;86.10;92264.56;4939924;29;20233;-80
2023/01/31 01:16:06;;;;;;;27.90;17.63;;;;;;;-0.87;84.20;92274.28;4939147;29;20182;-79
2023/01/31 01:18:34;;;;;;;26.60;18.20;;;;;;;-1.18;85.53;92304.47;4938295;29;20274;-79
2023/01/31 01:21:10;;;;;;;20.50;15.87;;;;;;;-1.08;83.70;92294.47;4939821;29;20207;-80
2023/01/31 01:23:37;;;;;;;19.63;14.67;;;;;;;-1.01;77.71;92267.00;4938496;29;20233;-79
2023/01/31 01:26:04;;;;;;;19.90;16.80;;;;;;;-0.75;80.43;92285.38;4940923;29;20185;-79
2023/01/31 01:28:33;;;;;;;17.63;15.73;;;;;;;-0.78;78.66;92283.22;4940050;29;20238;-79
2023/01/31 01:31:03;;;;;;;13.27;12.27;;;;;;;-0.14;65.14;92282.47;4940864;29;20182;-79
2023/01/31 01:33:30;;;;;;;11.33;10.67;;;;;;;0.45;59.29;92287.31;4939609;29;20221;-79
2023/01/31 01:36:00;;;;;;;10.37;9.77;;;;;;;0.68;51.84;92268.53;4938212;29;20181;-80
2023/01/31 01:38:26;;;;;;;10.03;9.53;;;;;;;0.73;50.28;92260.94;4937509;29;20225;-79
2023/01/31 01:40:51;;;;;;;10.77;10.27;;;;;;;0.78;46.67;92233.56;4937548;29;20218;-79
2023/01/31 01:43:17;;;;;;;11.13;10.43;;;;;;;0.76;46.99;92235.59;4941541;29;20222;-78
2023/01/31 01:45:43;;;;;;;10.90;10.40;;;;;;;0.95;46.19;92244.66;4940494;29;20232;-79
2023/01/31 01:48:16;;;;;;;10.47;9.87;;;;;;;0.96;43.81;92264.22;4940101;29;20446;-79
2023/01/31 01:50:46;;;;;;;10.10;9.37;;;;;;;0.81;45.04;92243.38;4938661;29;20258;-78
2023/01/31 01:53:22;;;;;;;10.17;9.57;;;;;;;0.88;47.18;92261.22;4931048;29;20360;-79
2023/01/31 01:55:53;;;;;;;10.97;10.17;;;;;;;1.01;42.50;92274.56;4932604;29;20186;-78
2023/01/31 01:58:31;;;;;;;10.97;10.27;;;;;;;1.00;44.59;92252.47;4916852;29;20339;-79
2023/01/31 02:00:58;;;;;;;9.17;8.63;;;;;;;1.07;43.20;92253.13;4938660;29;20216;-79
2023/01/31 02:03:24;;;;;;;9.97;9.57;;;;;;;1.08;41.91;92244.41;4936695;29;20228;-79
2023/01/31 02:05:58;;;;;;;11.47;10.67;;;;;;;1.01;45.15;92259.16;4938604;29;20284;-79
2023/01/31 02:08:27;;;;;;;10.47;9.87;;;;;;;0.83;46.09;92233.66;4938512;29;20234;-78
2023/01/31 02:10:58;;;;;;;10.23;9.73;;;;;;;0.87;46.27;92257.88;4938017;29;20206;-79
2023/01/31 02:13:24;;;;;;;11.37;10.67;;;;;;;0.81;49.18;92253.66;4937140;29;20222;-79
2023/01/31 02:15:49;;;;;;;11.57;10.97;;;;;;;0.89;44.59;92257.63;4940531;29;20185;-79
2023/01/31 02:18:18;;;;;;;10.07;9.57;;;;;;;0.91;41.78;92245.34;4917062;29;20238;-79
2023/01/31 02:20:58;;;;;;;10.53;10.03;;;;;;;1.03;40.83;92258.94;4915977;29;20182;-79
2023/01/31 02:23:55;;;;;;;11.40;10.63;;;;;;;0.80;42.66;92244.38;4935660;29;20234;-80
2023/01/31 02:26:29;;;;;;;9.97;9.37;;;;;;;0.92;42.59;92257.97;4938621;29;20201;-78
2023/01/31 02:29:32;;;;;;;10.27;9.67;;;;;;;0.96;43.14;92260.88;4938423;29;20264;-80
2023/01/31 02:32:34;;;;;;;9.67;9.17;;;;;;;0.95;46.79;92254.19;4940594;29;20337;-79
2023/01/31 02:35:05;;;;;;;10.00;9.53;;;;;;;0.97;47.07;92257.28;4940207;29;20300;-78
2023/01/31 02:37:40;;;;;;;11.37;10.67;;;;;;;1.05;47.08;92250.00;4945053;29;20198;-80
2023/01/31 02:40:08;;;;;;;9.93;9.40;;;;;;;1.09;47.46;92251.09;4941742;29;20209;-79
2023/01/31 02:43:04;;;;;;;10.97;10.27;;;;;;;1.05;50.43;92250.00;4942956;29;20201;-82
2023/01/31 02:46:12;;;;;;;11.50;10.80;;;;;;;1.08;52.43;92244.41;4929495;29;20379;-79
2023/01/31 02:48:55;;;;;;;11.57;10.97;;;;;;;1.13;53.15;92241.13;4893263;29;20225;-79
2023/01/31 02:51:23;;;;;;;10.57;9.97;;;;;;;1.19;54.12;92241.00;4941663;29;20194;-79
2023/01/31 02:56:13;;;;;;;11.37;10.53;;;;;;;1.12;56.29;92234.44;4941890;29;20230;-79
2023/01/31 02:57:10;;;;;;;11.87;11.07;;;;;;;1.16;57.28;92261.22;4940622;29;20206;-79
2023/01/31 02:59:35;;;;;;;11.13;10.57;;;;;;;1.10;57.15;92278.38;4942327;29;20289;-78
2023/01/31 03:02:02;;;;;;;10.90;10.27;;;;;;;1.04;58.01;92283.63;4945552;29;20175;-81
2023/01/31 03:04:32;;;;;;;11.93;11.03;;;;;;;1.07;60.22;92294.25;4919864;29;20285;-81
2023/01/31 03:07:00;;;;;;;12.77;11.97;;;;;;;1.01;61.75;92287.41;4935785;29;20190;-80
2023/01/31 03:09:38;;;;;;;10.80;10.10;;;;;;;0.82;63.78;92257.78;4936318;29;20234;-79
2023/01/31 03:12:20;;;;;;;11.43;10.73;;;;;;;0.96;64.87;92307.13;4939325;29;20189;-78
2023/01/31 03:14:55;;;;;;;13.07;12.13;;;;;;;0.87;65.99;92309.25;4939730;29;20232;-78
2023/01/31 03:17:49;;;;;;;11.77;11.03;;;;;;;0.62;67.49;92295.94;4941609;29;20190;-78
2023/01/31 03:20:23;;;;;;;14.13;10.77;;;;;;;0.69;68.82;92322.25;4931749;29;20225;-77
2023/01/31 03:23:00;;;;;;;12.03;11.20;;;;;;;0.69;69.97;92306.84;4919964;29;20197;-77
2023/01/31 03:25:29;;;;;;;12.40;11.57;;;;;;;0.62;71.99;92311.34;4940971;29;20205;-77
2023/01/31 03:28:00;;;;;;;12.57;11.67;;;;;;;0.46;72.74;92322.28;4920499;29;20244;-77
2023/01/31 03:30:38;;;;;;;11.57;10.77;;;;;;;0.47;74.26;92338.47;4941597;29;20202;-78
2023/01/31 03:33:16;;;;;;;11.30;10.60;;;;;;;0.29;74.79;92306.00;4939853;29;20230;-77
2023/01/31 03:35:46;;;;;;;12.67;11.73;;;;;;;0.41;75.36;92336.78;4941385;29;20208;-77
2023/01/31 03:38:26;;;;;;;12.40;11.63;;;;;;;0.33;76.33;92335.34;4940733;29;20238;-77
2023/01/31 03:41:07;;;;;;;12.33;11.63;;;;;;;0.30;76.50;92340.91;4942086;29;20190;-77
2023/01/31 03:43:49;;;;;;;13.60;12.43;;;;;;;0.29;76.99;92347.06;4941203;29;20241;-78
2023/01/31 03:46:21;;;;;;;13.60;12.60;;;;;;;0.24;78.11;92349.53;4939669;29;20199;-77
2023/01/31 03:48:51;;;;;;;13.30;12.10;;;;;;;0.03;78.78;92332.13;4942697;29;20300;-77
2023/01/31 03:51:21;;;;;;;12.30;11.53;;;;;;;0.13;79.10;92350.28;4941288;29;20197;-77
2023/01/31 03:53:58;;;;;;;11.93;11.13;;;;;;;0.01;80.51;92362.34;4940310;29;20270;-78
2023/01/31 03:56:38;;;;;;;12.07;11.10;;;;;;;0.00;80.66;92338.44;4945268;29;20182;-78
2023/01/31 03:59:11;;;;;;;12.97;11.87;;;;;;;0.00;80.07;92337.69;4943423;29;20225;-78
2023/01/31 04:01:42;;;;;;;12.33;11.37;;;;;;;0.01;80.52;92334.09;4943181;29;20182;-77
2023/01/31 04:04:11;;;;;;;12.57;11.60;;;;;;;0.02;79.81;92340.78;4917772;29;20230;-79
2023/01/31 04:06:37;;;;;;;12.03;11.03;;;;;;;0.04;80.43;92333.66;4941876;29;20185;-78
2023/01/31 04:09:03;;;;;;;12.50;11.57;;;;;;;-0.08;80.08;92338.78;4918733;29;20233;-78
2023/01/31 04:11:29;;;;;;;13.93;12.57;;;;;;;-0.06;80.03;92330.84;4941619;29;20185;-78
2023/01/31 04:13:54;;;;;;;12.67;11.87;;;;;;;0.10;80.87;92342.25;4944488;29;20233;-78
2023/01/31 04:16:20;;;;;;;12.93;11.87;;;;;;;-0.04;80.30;92373.25;4938248;29;20186;-78
2023/01/31 04:18:45;;;;;;;13.93;12.60;;;;;;;-0.25;80.81;92324.28;4939702;29;20285;-78
2023/01/31 04:21:13;;;;;;;14.27;13.07;;;;;;;-0.07;82.01;92380.59;4942761;29;20194;-78
2023/01/31 04:23:38;;;;;;;14.43;13.23;;;;;;;-0.07;82.55;92378.03;4919427;29;20238;-78
2023/01/31 04:26:03;;;;;;;14.50;13.50;;;;;;;-0.14;84.22;92372.25;4941587;29;20254;-79
2023/01/31 04:28:29;;;;;;;13.10;12.17;;;;;;;-0.13;83.72;92389.97;4940830;29;20233;-78
2023/01/31 04:30:56;;;;;;;13.33;12.13;;;;;;;0.06;86.62;92392.47;4942946;29;20190;-79
2023/01/31 04:33:22;;;;;;;13.03;12.00;;;;;;;-0.04;84.41;92398.13;4942071;29;20241;-77
2023/01/31 04:35:49;;;;;;;13.63;12.53;;;;;;;-0.14;83.76;92393.53;4942002;29;20185;-78
2023/01/31 04:38:14;;;;;;;13.47;12.30;;;;;;;-0.60;84.14;92336.19;4936887;29;20233;-78
2023/01/31 04:40:40;;;;;;;14.10;12.67;;;;;;;-0.15;85.94;92396.31;4937527;29;20201;-78
2023/01/31 04:43:05;;;;;;;12.83;11.73;;;;;;;-0.38;85.56;92391.13;4916932;29;20348;-78
2023/01/31 04:45:30;;;;;;;13.37;12.20;;;;;;;-0.33;84.96;92404.06;4939029;29;20233;-78
2023/01/31 04:47:56;;;;;;;12.47;11.43;;;;;;;-0.56;84.13;92360.41;4932701;29;20214;-78
2023/01/31 04:50:21;;;;;;;13.63;12.20;;;;;;;-0.45;84.09;92387.88;4937308;29;20198;-78
2023/01/31 04:52:50;;;;;;;13.77;12.67;;;;;;;-0.27;84.44;92414.25;4935591;29;20199;-79
2023/01/31 04:55:16;;;;;;;14.10;12.80;;;;;;;-0.25;84.90;92417.34;4935896;29;20265;-75
2023/01/31 04:57:41;;;;;;;15.07;13.73;;;;;;;-0.45;84.74;92400.69;4935861;29;20485;-76
2023/01/31 05:00:07;;;;;;;13.47;12.37;;;;;;;-0.34;84.49;92416.09;4942302;29;20189;-75
2023/01/31 05:02:33;;;;;;;12.57;11.53;;;;;;;-0.23;84.65;92394.06;4914370;29;20225;-83
2023/01/31 05:04:58;;;;;;;12.87;11.70;;;;;;;-0.03;83.99;92415.84;4916540;29;20221;-74
2023/01/31 05:07:24;;;;;;;12.50;11.50;;;;;;;-0.33;81.97;92394.56;4938039;29;20202;-74
2023/01/31 05:09:49;;;;;;;13.20;12.40;;;;;;;-0.26;82.59;92415.00;4937205;29;20304;-79
2023/01/31 05:12:15;;;;;;;14.70;13.37;;;;;;;-0.23;82.77;92437.66;4917331;29;20217;-71
2023/01/31 05:14:40;;;;;;;13.53;11.97;;;;;;;-0.13;82.64;92423.31;4932215;29;20226;-70
2023/01/31 05:17:06;;;;;;;13.10;11.80;;;;;;;-0.07;81.97;92424.22;4932544;29;20840;-70
2023/01/31 05:19:31;;;;;;;12.23;11.43;;;;;;;-0.13;81.94;92410.50;4932062;29;20364;-72
2023/01/31 05:21:57;;;;;;;14.07;13.10;;;;;;;-0.18;81.23;92412.13;4932320;29;20186;-69
2023/01/31 05:24:26;;;;;;;13.17;12.30;;;;;;;-0.21;81.44;92408.25;4914842;29;20293;-71
2023/01/31 05:26:55;;;;;;;13.63;12.63;;;;;;;-0.11;80.96;92416.16;4932148;29;20483;-70
2023/01/31 05:29:20;;;;;;;12.73;11.63;;;;;;;-0.12;81.63;92406.91;4932120;29;20222;-70
2023/01/31 05:31:50;;;;;;;13.83;12.73;;;;;;;-0.04;82.09;92434.84;4932752;29;20198;-69
2023/01/31 05:34:15;;;;;;;12.67;11.87;;;;;;;-0.09;82.57;92392.84;4932110;29;20269;-77
2023/01/31 05:36:43;;;;;;;13.13;12.03;;;;;;;0.22;80.93;92420.06;4934936;29;20221;-75
2023/01/31 05:39:09;;;;;;;14.07;12.77;;;;;;;-0.05;81.34;92422.22;4938714;29;20232;-75
2023/01/31 05:41:34;;;;;;;14.00;12.90;;;;;;;-0.15;81.36;92416.81;4937817;29;20237;-76
2023/01/31 05:43:59;;;;;;;14.33;12.77;;;;;;;-0.18;80.88;92412.94;4940826;29;20245;-77
2023/01/31 05:46:25;;;;;;;13.90;12.53;;;;;;;-0.23;81.59;92417.13;4937183;29;20182;-76
2023/01/31 05:48:50;;;;;;;12.93;12.07;;;;;;;-0.08;81.85;92413.16;4937556;29;20265;-77
2023/01/31 05:51:16;;;;;;;12.30;11.43;;;;;;;-0.28;81.32;92396.50;4935971;29;20197;-77
2023/01/31 05:53:42;;;;;;;11.40;10.63;;;;;;;-0.21;81.49;92407.44;4938094;29;20228;-77
2023/01/31 05:56:07;;;;;;;12.40;11.53;;;;;;;0.03;82.77;92431.38;4937884;29;20199;-76
2023/01/31 05:58:33;;;;;;;12.63;11.40;;;;;;;-0.01;81.65;92418.19;4936307;29;20222;-76
2023/01/31 06:00:59;;;;;;;12.80;11.77;;;;;;;-0.04;81.38;92439.16;4939398;29;20182;-75
2023/01/31 06:03:24;;;;;;;12.67;11.77;;;;;;;-0.06;81.43;92430.91;4935616;29;20285;-74
2023/01/31 06:05:49;;;;;;;13.03;12.13;;;;;;;0.00;82.24;92432.63;4937019;29;20194;-72
2023/01/31 06:08:16;;;;;;;12.87;11.97;;;;;;;0.06;82.17;92444.56;4934291;29;20225;-71
2023/01/31 06:10:41;;;;;;;12.80;11.77;;;;;;;-0.10;84.01;92401.56;4936242;29;20205;-71
2023/01/31 06:13:07;;;;;;;11.63;10.83;;;;;;;0.31;84.74;92432.34;4932472;29;20281;-72
2023/01/31 06:15:32;;;;;;;14.27;13.27;;;;;;;0.20;83.12;92448.50;4930193;29;20257;-72
2023/01/31 06:17:58;;;;;;;13.90;12.80;;;;;;;0.17;83.31;92443.81;4934832;29;20197;-71
2023/01/31 06:20:24;;;;;;;12.83;11.83;;;;;;;0.19;86.06;92431.53;4930717;29;20201;-70
2023/01/31 06:22:50;;;;;;;13.37;12.43;;;;;;;0.14;83.51;92449.34;4936775;29;20198;-71
2023/01/31 06:25:16;;;;;;;12.90;11.90;;;;;;;0.09;83.53;92463.88;4932984;29;20210;-71
2023/01/31 06:27:41;;;;;;;13.57;12.37;;;;;;;0.07;84.08;92453.81;4910522;29;20233;-72
2023/01/31 06:30:08;;;;;;;13.67;11.27;;;;;;;0.23;83.16;92463.47;4933518;29;20239;-71
2023/01/31 06:32:33;;;;;;;12.87;11.63;;;;;;;0.26;82.93;92450.19;4912899;29;20201;-71
2023/01/31 06:34:59;;;;;;;12.53;11.47;;;;;;;0.40;82.18;92461.03;4927521;29;20226;-72
2023/01/31 06:37:24;;;;;;;12.10;11.10;;;;;;;0.39;84.92;92467.19;4931173;29;20242;-72
2023/01/31 06:39:50;;;;;;;13.63;12.57;;;;;;;0.31;81.83;92482.91;4931183;29;20226;-71
2023/01/31 06:42:15;;;;;;;14.13;13.07;;;;;;;0.35;81.62;92460.91;4930267;29;20205;-72
2023/01/31 06:44:40;;;;;;;14.07;12.90;;;;;;;0.25;82.02;92473.50;4933747;29;20269;-71
2023/01/31 06:47:06;;;;;;;12.97;11.97;;;;;;;0.38;82.56;92479.22;4933612;29;20201;-71
2023/01/31 06:49:31;;;;;;;14.50;13.43;;;;;;;0.37;83.14;92475.09;4931645;29;20257;-72
2023/01/31 06:51:56;;;;;;;13.93;12.93;;;;;;;0.24;83.97;92451.38;4928953;29;20190;-72
2023/01/31 06:54:22;;;;;;;13.87;12.70;;;;;;;0.41;82.14;92486.47;4933508;29;20233;-71
2023/01/31 06:56:47;;;;;;;14.30;13.30;;;;;;;0.45;81.97;92490.16;4930035;29;20278;-70
2023/01/31 06:59:13;;;;;;;14.17;13.07;;;;;;;0.40;81.78;92466.16;4935820;29;20242;-73
2023/01/31 07:01:38;;;;;;;13.53;12.53;;;;;;;0.51;81.65;92489.31;4935179;29;20201;-72
2023/01/31 07:04:04;;;;;;;14.03;12.87;;;;;;;0.44;81.45;92486.03;4933616;29;21054;-70
2023/01/31 07:06:29;;;;;;;15.60;14.13;;;;;;;0.31;81.44;92470.84;4931002;29;20194;-70
2023/01/31 07:08:54;;;;;;;14.43;13.17;;;;;;;0.43;80.93;92492.19;4937269;29;20233;-70
2023/01/31 07:11:20;;;;;;;13.50;12.50;;;;;;;0.27;80.88;92466.34;4936559;29;20190;-70
2023/01/31 07:13:46;;;;;;;14.53;13.27;;;;;;;0.57;80.87;92493.56;4932634;29;20234;-71
2023/01/31 07:16:13;;;;;;;13.80;12.70;;;;;;;0.60;79.16;92492.31;4932335;29;20194;-70
2023/01/31 07:18:38;;;;;;;16.50;14.87;;;;;;;0.54;82.33;92468.31;4940568;29;20236;-75
2023/01/31 07:21:05;;;;;;;14.00;12.70;;;;;;;0.61;80.54;92470.78;4940835;29;20197;-74
2023/01/31 07:23:30;;;;;;;15.57;13.97;;;;;;;0.79;80.73;92501.50;4940521;29;20255;-74
2023/01/31 07:25:56;;;;;;;14.10;13.03;;;;;;;0.82;83.58;92501.84;4939411;29;20254;-75
2023/01/31 07:28:21;;;;;;;12.13;11.03;;;;;;;0.61;83.03;92483.63;4938378;29;20258;-75
2023/01/31 07:30:47;;;;;;;13.13;11.93;;;;;;;0.73;82.28;92503.16;4937405;29;20194;-73
2023/01/31 07:33:12;;;;;;;12.23;11.43;;;;;;;0.61;82.76;92494.66;4940794;29;20282;-74
2023/01/31 07:35:38;;;;;;;12.17;11.37;;;;;;;0.55;83.17;92487.84;4940855;29;20217;-76
2023/01/31 07:38:03;;;;;;;14.63;13.50;;;;;;;0.61;85.03;92481.81;4940599;29;20338;-75
2023/01/31 07:40:29;;;;;;;12.40;11.60;;;;;;;0.55;83.30;92485.28;4940786;29;20221;-81
2023/01/31 07:42:58;;;;;;;12.97;11.93;;;;;;;0.65;84.02;92493.25;4943259;29;20189;-86
2023/01/31 07:45:24;;;;;;;12.40;11.50;;;;;;;0.79;83.54;92506.66;4935196;29;20233;-83
2023/01/31 07:47:51;;;;;;;12.23;11.43;;;;;;;0.67;84.42;92485.31;4937635;29;20224;-82
2023/01/31 07:50:16;;;;;;;13.10;12.17;;;;;;;0.61;82.71;92471.56;4945205;29;20236;-84
2023/01/31 07:52:42;;;;;;;12.43;11.53;;;;;;;0.59;82.66;92455.56;4937754;29;20190;-82
2023/01/31 07:55:08;;;;;;;13.27;12.37;;;;;;;0.99;82.51;92509.66;4939215;29;20201;-80
2023/01/31 07:57:33;;;;;;;13.53;12.63;;;;;;;0.75;83.42;92495.22;4941372;29;20218;-82
2023/01/31 07:59:59;;;;;;;12.90;11.90;;;;;;;0.75;84.58;92501.16;4936164;29;20248;-82
2023/01/31 08:05:12;;;;;;;13.17;12.07;;;;;;;0.84;84.88;92484.41;4941500;29;20216;-82
2023/01/31 08:07:38;;;;;;;13.03;12.03;;;;;;;0.64;85.11;92463.41;4937841;29;20229;-82
2023/01/31 08:10:03;;;;;;;11.63;10.80;;;;;;;0.88;83.56;92503.53;4940050;29;20233;-79
2023/01/31 08:12:29;;;;;;;12.90;12.00;;;;;;;0.85;82.20;92491.13;4936574;29;20190;-77
2023/01/31 08:14:54;;;;;;;11.80;11.00;;;;;;;0.98;82.03;92474.72;4938851;29;20230;-75
2023/01/31 08:17:20;;;;;;;13.07;12.07;;;;;;;1.04;81.35;92468.66;4940671;29;20963;-75
2023/01/31 08:19:45;;;;;;;12.23;11.53;;;;;;;1.27;80.06;92479.72;4941168;29;21077;-76
2023/01/31 08:22:10;;;;;;;12.60;11.50;;;;;;;1.16;78.90;92490.78;4939263;29;20204;-75
2023/01/31 08:24:36;;;;;;;12.13;11.27;;;;;;;1.18;79.20;92473.34;4938678;29;20278;-76
2023/01/31 08:27:01;;;;;;;11.80;11.20;;;;;;;1.00;79.70;92473.47;4916593;29;20325;-75
2023/01/31 08:29:27;;;;;;;12.43;11.63;;;;;;;0.93;80.38;92467.69;4940038;29;20301;-74
2023/01/31 08:31:53;;;;;;;13.90;13.10;;;;;;;1.06;79.81;92467.44;4936139;29;20202;-75
2023/01/31 08:34:19;;;;;;;12.33;11.33;;;;;;;1.28;80.63;92459.91;4937306;29;20230;-75
2023/01/31 08:36:44;;;;;;;12.40;11.60;;;;;;;1.24;78.93;92459.59;4917429;29;20221;-74
2023/01/31 08:39:10;;;;;;;11.97;11.20;;;;;;;1.28;79.22;92470.19;4937077;29;20301;-75
2023/01/31 08:41:36;;;;;;;12.83;11.90;;;;;;;1.40;78.94;92484.59;4935407;29;20218;-72
2023/01/31 08:44:03;;;;;;;11.73;11.03;;;;;;;1.34;79.68;92479.56;4935194;29;20794;-76
2023/01/31 08:46:32;;;;;;;12.47;11.60;;;;;;;1.19;80.20;92472.34;4940981;29;20746;-80
2023/01/31 08:48:59;;;;;;;12.57;11.70;;;;;;;1.22;83.61;92484.75;4933603;29;20360;-79
2023/01/31 08:51:24;;;;;;;12.60;11.70;;;;;;;1.28;80.93;92470.19;4939107;29;20194;-77
2023/01/31 08:53:50;;;;;;;13.70;12.67;;;;;;;1.26;80.94;92467.09;4939946;29;20258;-78
2023/01/31 08:56:16;;;;;;;12.03;11.33;;;;;;;0.95;79.83;92455.38;4935385;29;20201;-78
2023/01/31 08:58:43;;;;;;;13.37;11.97;;;;;;;0.97;80.09;92447.44;4938446;29;20253;-77
2023/01/31 09:01:11;;;;;;;13.00;12.20;;;;;;;1.12;79.67;92461.38;4942063;29;20740;-77
2023/01/31 09:03:37;;;;;;;11.13;10.43;;;;;;;1.20;78.19;92468.75;4937834;29;20298;-75
2023/01/31 09:06:05;;;;;;;11.73;11.13;;;;;;;1.21;76.51;92479.84;4937707;29;20194;-75
2023/01/31 09:08:31;;;;;;;11.07;10.37;;;;;;;1.25;76.23;92466.31;4936487;29;20237;-75
2023/01/31 09:10:59;;;;;;;10.73;10.23;;;;;;;1.39;77.45;92482.25;4940602;29;20186;-75
2023/01/31 09:13:26;;;;;;;11.00;10.40;;;;;;;1.54;73.86;92488.50;4940317;29;20230;-76
2023/01/31 09:16:05;;;;;;;10.90;10.30;;;;;;;1.79;73.96;92502.88;4936500;29;20186;-76
2023/01/31 09:18:33;;;;;;;12.20;11.43;;;;;;;1.56;73.67;92476.19;4937092;29;20265;-75
2023/01/31 09:21:06;;;;;;;12.47;11.77;;;;;;;1.98;73.94;92478.53;4937440;29;20197;-75
2023/01/31 09:23:33;;;;;;;10.90;10.30;;;;;;;1.84;73.39;92488.31;4935645;29;20249;-78
2023/01/31 09:25:58;;;;;;;11.30;10.70;;;;;;;1.72;75.41;92466.97;4936679;29;20194;-77
2023/01/31 09:28:24;;;;;;;11.73;10.97;;;;;;;1.86;75.91;92462.34;4936528;29;20257;-76
2023/01/31 09:30:52;;;;;;;11.73;11.13;;;;;;;1.94;73.02;92480.78;4936924;29;20197;-76
2023/01/31 09:33:18;;;;;;;12.00;11.20;;;;;;;1.96;73.31;92488.28;4938152;29;20235;-76
2023/01/31 09:35:57;;;;;;;12.20;11.50;;;;;;;1.87;74.79;92463.91;4935173;29;20198;-78
2023/01/31 09:38:24;;;;;;;12.33;11.53;;;;;;;2.12;74.56;92478.00;4938057;29;20222;-76
2023/01/31 09:40:50;;;;;;;12.40;11.70;;;;;;;2.01;75.47;92473.69;4936603;29;20186;-77
2023/01/31 09:43:19;;;;;;;12.57;11.77;;;;;;;1.88;73.38;92476.56;4938935;29;20229;-77
2023/01/31 09:45:48;;;;;;;11.60;10.87;;;;;;;1.88;73.57;92447.47;4936185;29;20230;-76
2023/01/31 09:48:20;;;;;;;11.07;10.37;;;;;;;2.24;73.81;92444.50;4938062;29;20229;-76
2023/01/31 09:50:49;;;;;;;12.60;11.80;;;;;;;2.19;73.27;92441.84;4936319;29;20219;-79
2023/01/31 09:53:20;;;;;;;12.20;11.53;;;;;;;2.01;73.09;92442.81;4937572;29;20237;-76
2023/01/31 09:56:04;;;;;;;11.23;10.53;;;;;;;2.17;74.85;92431.75;4941093;29;20202;-76
2023/01/31 09:58:37;;;;;;;12.43;11.73;;;;;;;2.10;71.52;92427.78;4935987;29;20221;-78
2023/01/31 10:01:19;;;;;;;11.63;11.03;;;;;;;1.86;69.17;92374.84;4916971;29;20197;-83
2023/01/31 10:03:45;;;;;;;11.23;10.73;;;;;;;2.17;67.93;92444.63;4933529;29;20234;-80
2023/01/31 10:06:22;;;;;;;11.17;10.23;;;;;;;2.36;68.41;92432.34;4937899;29;20279;-82
2023/01/31 10:09:10;;;;;;;11.57;10.93;;;;;;;2.31;68.34;92439.97;4937723;29;20237;-81
2023/01/31 10:11:42;;;;;;;10.67;10.07;;;;;;;2.44;69.47;92434.53;4925041;29;20241;-81
2023/01/31 10:14:20;;;;;;;10.60;10.10;;;;;;;2.66;70.02;92440.53;4933972;29;20226;-73
2023/01/31 10:16:59;;;;;;;11.77;11.07;;;;;;;2.79;70.45;92438.44;4934285;29;20190;-73
2023/01/31 10:19:30;;;;;;;11.67;10.77;;;;;;;3.12;71.10;92432.44;4935868;29;20233;-74
2023/01/31 10:22:05;;;;;;;11.67;10.87;;;;;;;2.61;68.42;92435.31;4935162;29;20209;-74
2023/01/31 10:24:38;;;;;;;11.57;10.97;;;;;;;2.39;69.00;92426.72;4934325;29;20235;-75
2023/01/31 10:27:14;;;;;;;10.77;10.27;;;;;;;2.19;69.29;92452.13;4936681;29;20186;-74
2023/01/31 10:29:43;;;;;;;11.23;10.73;;;;;;;2.39;69.30;92442.16;4938152;29;20730;-74
2023/01/31 10:32:25;;;;;;;11.73;11.03;;;;;;;2.81;68.86;92440.78;4936192;29;20284;-73
2023/01/31 10:35:12;;;;;;;10.23;9.80;;;;;;;2.96;66.29;92435.81;4929914;29;20297;-76
2023/01/31 10:37:45;;;;;;;13.67;12.73;;;;;;;3.06;66.23;92444.50;4914464;29;20266;-79
2023/01/31 10:40:19;;;;;;;11.53;10.93;;;;;;;2.99;65.61;92443.88;4914214;29;20249;-79
2023/01/31 10:42:51;;;;;;;15.50;10.63;;;;;;;2.72;66.66;92437.03;4930002;29;20229;-79
2023/01/31 10:45:22;;;;;;;10.70;10.00;;;;;;;2.85;66.92;92432.31;4930554;29;20233;-79
2023/01/31 10:48:00;;;;;;;10.40;9.83;;;;;;;3.09;66.21;92444.03;4934075;29;20284;-79
2023/01/31 10:50:39;;;;;;;10.77;10.17;;;;;;;2.62;65.47;92391.28;4916593;29;20307;-79
2023/01/31 10:53:13;;;;;;;11.77;11.17;;;;;;;3.01;66.68;92439.25;4934126;29;20233;-77
2023/01/31 10:55:51;;;;;;;11.87;11.17;;;;;;;2.92;66.12;92463.09;4943064;29;20216;-78
2023/01/31 10:58:21;;;;;;;10.97;10.37;;;;;;;2.74;65.68;92438.34;4940067;29;20221;-79
2023/01/31 11:00:46;;;;;;;10.77;10.27;;;;;;;2.73;67.09;92459.19;4938731;29;20197;-79
2023/01/31 11:03:12;;;;;;;10.53;9.93;;;;;;;2.27;70.40;92452.56;4918894;29;20338;-79
2023/01/31 11:05:45;;;;;;;11.90;11.20;;;;;;;2.21;72.29;92460.41;4935193;29;20277;-78
2023/01/31 11:08:28;;;;;;;10.20;9.70;;;;;;;1.85;74.35;92445.34;4939626;29;20308;-77
2023/01/31 11:10:55;;;;;;;11.37;10.67;;;;;;;1.94;75.55;92449.09;4939198;29;20186;-77
2023/01/31 11:13:22;;;;;;;11.53;10.73;;;;;;;1.82;76.15;92446.59;4941135;29;20246;-77
2023/01/31 11:15:51;;;;;;;13.00;11.80;;;;;;;1.91;76.89;92455.50;4936451;29;20190;-78
2023/01/31 11:18:34;;;;;;;11.53;10.67;;;;;;;1.60;78.00;92438.69;4936758;29;20269;-78
2023/01/31 11:21:01;;;;;;;11.47;10.87;;;;;;;1.53;77.71;92435.50;4931461;29;20189;-75
2023/01/31 11:23:31;;;;;;;12.10;11.30;;;;;;;1.67;77.52;92448.09;4938257;29;20232;-72
2023/01/31 11:25:57;;;;;;;12.77;11.87;;;;;;;1.72;78.08;92446.41;4938561;29;20193;-74
2023/01/31 11:28:34;;;;;;;10.23;9.63;;;;;;;1.36;79.07;92447.50;4937290;29;20234;-73
2023/01/31 11:31:00;;;;;;;11.13;10.53;;;;;;;1.33;80.38;92453.09;4935190;29;20190;-74
2023/01/31 11:33:47;;;;;;;11.77;11.00;;;;;;;1.27;81.90;92460.94;4938510;29;20344;-71
2023/01/31 11:36:21;;;;;;;11.20;10.70;;;;;;;1.23;82.85;92450.31;4940218;29;20261;-72